Time;durP1;ratioP1;P1;durP2;ratioP2;P2;SDS_P1;SDS_P2;PMS_P1;PMS_P2;Temp;Humidity;BMP_temperature;BMP_pressure;BME280_temperature;BME280_humidity;BME280_pressure;Samples;Min_cycle;Max_cycle;Signal;HPM_P1;HPM_P2
2023/09/08 06:55:59;;;;;;;14.55;8.63;;;;;;;19.02;100.00;101484.16;5068248;28;20387;-71
2023/09/08 06:58:24;;;;;;;15.90;8.90;;;;;;;19.08;100.00;101482.25;5080140;28;20047;-72
2023/09/08 07:00:53;;;;;;;13.07;8.43;;;;;;;19.18;100.00;101487.78;5075161;28;20009;-71
2023/09/08 07:03:18;;;;;;;12.02;8.30;;;;;;;19.28;100.00;101487.84;5051397;28;20079;-74
2023/09/08 07:05:44;;;;;;;22.92;9.13;;;;;;;19.40;100.00;101489.53;5059402;28;20394;-72
2023/09/08 07:08:09;;;;;;;19.40;8.65;;;;;;;19.45;100.00;101489.56;5068523;28;20490;-71
2023/09/08 07:10:35;;;;;;;16.92;8.52;;;;;;;19.52;100.00;101487.38;5057912;28;20028;-72
2023/09/08 07:13:00;;;;;;;16.10;8.43;;;;;;;19.61;100.00;101490.41;5049530;28;20036;-73
2023/09/08 07:15:25;;;;;;;17.15;8.80;;;;;;;19.69;100.00;101491.78;5055959;28;20021;-71
2023/09/08 07:17:50;;;;;;;26.45;8.43;;;;;;;19.76;100.00;101486.88;5049217;28;20412;-73
2023/09/08 07:20:17;;;;;;;20.67;8.82;;;;;;;19.87;100.00;101498.75;5048657;28;20028;-72
2023/09/08 07:22:42;;;;;;;15.88;8.25;;;;;;;19.97;100.00;101496.84;5049526;28;20033;-72
2023/09/08 07:25:09;;;;;;;19.83;8.65;;;;;;;20.08;100.00;101503.19;5053696;28;20074;-71
2023/09/08 07:27:34;;;;;;;14.10;7.82;;;;;;;20.15;100.00;101505.66;5051246;28;20037;-72
2023/09/08 07:30:00;;;;;;;17.50;8.07;;;;;;;20.20;100.00;101497.44;5044242;28;20617;-72
2023/09/08 07:32:25;;;;;;;14.93;7.68;;;;;;;20.29;100.00;101500.44;5049502;28;20036;-72
2023/09/08 07:34:54;;;;;;;16.85;7.45;;;;;;;20.35;100.00;101500.16;5035097;28;20036;-73
2023/09/08 07:37:21;;;;;;;14.27;7.45;;;;;;;20.47;100.00;101496.31;5069218;28;20027;-72
2023/09/08 07:39:47;;;;;;;14.32;7.45;;;;;;;20.57;100.00;101503.72;5064517;28;20021;-72
2023/09/08 07:42:12;;;;;;;16.02;7.22;;;;;;;20.61;100.00;101502.06;5048982;28;20032;-73
2023/09/08 07:44:37;;;;;;;13.75;7.03;;;;;;;20.70;100.00;101495.75;5048811;28;20040;-72
2023/09/08 07:47:03;;;;;;;11.63;6.75;;;;;;;20.82;100.00;101491.88;5068511;28;20025;-71
2023/09/08 07:49:28;;;;;;;8.77;6.13;;;;;;;20.80;100.00;101494.09;5066792;28;20517;-72
2023/09/08 07:51:54;;;;;;;11.82;6.55;;;;;;;20.90;100.00;101494.06;5048753;28;20021;-72
2023/09/08 07:54:19;;;;;;;10.70;6.45;;;;;;;20.92;100.00;101496.53;5048776;28;20060;-72
2023/09/08 07:56:44;;;;;;;9.18;6.35;;;;;;;21.10;100.00;101493.19;5065632;28;20413;-72
2023/09/08 07:59:09;;;;;;;10.48;6.38;;;;;;;21.01;100.00;101501.19;5068763;28;20024;-72
2023/09/08 08:01:35;;;;;;;11.27;6.68;;;;;;;21.16;100.00;101491.25;5048116;28;20025;-72
2023/09/08 08:04:03;;;;;;;9.90;6.30;;;;;;;21.27;100.00;101490.09;5048625;28;20033;-73
2023/09/08 08:06:28;;;;;;;9.80;6.13;;;;;;;21.32;100.00;101486.50;5054646;28;20518;-73
2023/09/08 08:08:53;;;;;;;10.57;6.13;;;;;;;21.36;100.00;101490.31;5055436;28;20025;-72
2023/09/08 08:11:19;;;;;;;9.60;6.10;;;;;;;21.42;100.00;101484.53;5039807;28;20025;-73
2023/09/08 08:13:45;;;;;;;9.68;6.30;;;;;;;21.59;100.00;101480.63;5043614;28;20408;-72
2023/09/08 08:16:11;;;;;;;12.15;6.18;;;;;;;21.62;100.00;101488.31;5054762;28;20059;-72
2023/09/08 08:18:36;;;;;;;9.90;5.72;;;;;;;21.65;100.00;101490.50;5054951;28;20029;-72
2023/09/08 08:21:03;;;;;;;10.88;6.18;;;;;;;21.64;100.00;101497.09;5054957;28;20035;-72
2023/09/08 08:23:29;;;;;;;10.25;6.07;;;;;;;21.75;100.00;101489.59;5050413;28;20025;-72
2023/09/08 08:25:54;;;;;;;10.80;6.05;;;;;;;21.91;100.00;101495.84;5054595;28;20032;-72
2023/09/08 08:28:19;;;;;;;11.65;5.50;;;;;;;21.84;100.00;101495.34;5055000;28;20053;-72
2023/09/08 08:30:47;;;;;;;9.98;5.57;;;;;;;21.95;100.00;101494.13;5054956;28;20029;-73
2023/09/08 08:33:13;;;;;;;9.60;5.32;;;;;;;21.97;100.00;101494.69;5042659;28;20076;-72
2023/09/08 08:35:39;;;;;;;9.68;5.13;;;;;;;22.08;100.00;101492.69;5023345;28;20116;-72
2023/09/08 08:38:04;;;;;;;8.15;4.82;;;;;;;22.19;100.00;101493.41;5031858;28;20101;-72
2023/09/08 08:40:30;;;;;;;7.13;5.00;;;;;;;22.31;100.00;101499.41;5014984;28;20029;-72
2023/09/08 08:42:56;;;;;;;13.63;5.20;;;;;;;22.39;100.00;101501.56;5014945;28;20076;-72
2023/09/08 08:45:26;;;;;;;8.88;5.38;;;;;;;22.41;100.00;101501.28;5033517;28;20047;-73
2023/09/08 08:47:52;;;;;;;10.25;5.22;;;;;;;22.47;100.00;101498.16;5034502;28;20022;-72
2023/09/08 08:50:18;;;;;;;8.55;4.97;;;;;;;22.60;100.00;101502.19;5049002;28;20021;-72
2023/09/08 08:52:44;;;;;;;6.00;4.95;;;;;;;22.73;100.00;101497.91;5051028;28;20032;-72
2023/09/08 08:55:10;;;;;;;7.18;4.68;;;;;;;22.83;100.00;101497.00;5034447;28;20053;-71
2023/09/08 08:57:39;;;;;;;8.32;4.85;;;;;;;22.81;100.00;101497.28;5034760;28;20040;-70
2023/09/08 09:00:11;;;;;;;6.85;5.28;;;;;;;22.87;100.00;101494.47;5034247;28;20079;-70
2023/09/08 09:02:41;;;;;;;9.98;4.82;;;;;;;22.92;100.00;101497.19;5031489;28;20048;-70
2023/09/08 09:05:13;;;;;;;8.25;5.00;;;;;;;22.90;100.00;101493.88;5041108;28;20129;-70
2023/09/08 09:07:41;;;;;;;10.48;5.10;;;;;;;23.03;100.00;101486.84;5052894;28;20021;-71
2023/09/08 09:10:07;;;;;;;8.25;5.10;;;;;;;23.04;100.00;101496.75;5037550;28;20361;-70
2023/09/08 09:12:33;;;;;;;5.40;4.47;;;;;;;23.12;100.00;101496.97;5034265;28;20025;-70
2023/09/08 09:15:04;;;;;;;9.48;5.15;;;;;;;23.26;100.00;101501.78;5032704;28;20072;-72
2023/09/08 09:17:30;;;;;;;6.22;4.90;;;;;;;23.21;100.00;101499.09;5015457;28;20084;-70
2023/09/08 09:20:17;;;;;;;6.13;4.78;;;;;;;23.26;100.00;101499.03;5034368;28;20025;-70
2023/09/08 09:22:43;;;;;;;8.63;5.00;;;;;;;23.33;100.00;101497.53;5034099;28;20025;-70
2023/09/08 09:25:09;;;;;;;8.60;4.63;;;;;;;23.31;100.00;101494.25;5029058;28;20056;-70
2023/09/08 09:27:40;;;;;;;9.23;5.20;;;;;;;23.42;100.00;101492.19;5025083;28;20100;-70
2023/09/08 09:30:06;;;;;;;9.75;4.82;;;;;;;23.63;100.00;101494.69;5033797;28;20053;-70
2023/09/08 09:32:34;;;;;;;11.90;4.88;;;;;;;23.66;100.00;101489.38;5034341;28;20531;-74
2023/09/08 09:35:00;;;;;;;8.20;4.88;;;;;;;23.65;100.00;101486.91;5027652;28;20464;-71
2023/09/08 09:37:26;;;;;;;10.88;5.05;;;;;;;23.91;100.00;101490.13;5032446;28;20025;-71
2023/09/08 09:39:53;;;;;;;10.95;4.70;;;;;;;23.96;100.00;101492.00;5033689;28;20372;-70
2023/09/08 09:42:20;;;;;;;13.90;5.13;;;;;;;23.89;100.00;101495.16;5033828;28;20095;-71
2023/09/08 09:44:51;;;;;;;11.52;4.88;;;;;;;23.96;100.00;101492.84;5031990;28;20104;-72
2023/09/08 09:47:16;;;;;;;9.30;4.97;;;;;;;24.05;100.00;101499.31;5041894;28;20038;-69
2023/09/08 09:49:43;;;;;;;7.70;4.93;;;;;;;24.02;100.00;101499.09;5038471;28;20033;-71
2023/09/08 09:52:13;;;;;;;9.80;4.78;;;;;;;24.20;100.00;101495.50;5038080;28;20029;-71
2023/09/08 09:54:40;;;;;;;7.47;5.10;;;;;;;24.30;100.00;101490.91;5052397;28;20079;-70
2023/09/08 09:57:06;;;;;;;11.15;5.25;;;;;;;24.39;100.00;101492.66;5051776;28;20017;-71
2023/09/08 09:59:33;;;;;;;8.32;4.60;;;;;;;24.31;100.00;101490.59;5051681;28;20070;-71
2023/09/08 10:01:59;;;;;;;8.10;4.40;;;;;;;24.46;100.00;101491.44;5019066;28;20374;-70
2023/09/08 10:04:26;;;;;;;8.43;5.00;;;;;;;24.53;100.00;101495.50;5013457;28;20083;-71
2023/09/08 10:06:52;;;;;;;9.00;4.90;;;;;;;24.71;100.00;101490.19;5013472;28;20033;-70
2023/09/08 10:09:19;;;;;;;11.73;4.90;;;;;;;24.62;89.58;101489.25;5013215;28;20343;-70
2023/09/08 10:11:48;;;;;;;9.32;4.82;;;;;;;24.79;100.00;101483.97;5034831;28;20033;-71
2023/09/08 10:14:18;;;;;;;8.70;4.50;;;;;;;24.78;95.56;101493.38;5032389;28;20037;-71
2023/09/08 10:16:52;;;;;;;7.57;4.90;;;;;;;24.91;100.00;101498.13;5032724;28;20100;-70
2023/09/08 10:19:17;;;;;;;11.50;5.28;;;;;;;24.90;90.96;101488.16;5032749;28;20469;-71
2023/09/08 10:21:46;;;;;;;12.48;4.75;;;;;;;24.98;93.20;101494.13;5033178;28;20036;-71
2023/09/08 10:24:14;;;;;;;8.73;4.72;;;;;;;24.98;100.00;101488.59;5032674;28;20032;-71
2023/09/08 10:26:43;;;;;;;12.55;5.03;;;;;;;25.14;97.10;101484.38;5028197;28;20025;-71
2023/09/08 10:29:10;;;;;;;15.10;4.85;;;;;;;25.12;84.83;101484.69;5031145;28;20515;-71
2023/09/08 10:31:36;;;;;;;6.10;4.55;;;;;;;25.17;88.19;101486.53;5032746;28;20037;-71
2023/09/08 10:34:02;;;;;;;9.68;5.05;;;;;;;25.29;89.56;101488.78;5032537;28;20075;-70
2023/09/08 10:36:28;;;;;;;7.18;4.50;;;;;;;25.35;92.12;101479.25;5025460;28;20390;-70
2023/09/08 10:38:56;;;;;;;7.70;4.30;;;;;;;25.37;84.32;101484.50;5013105;28;20100;-71
2023/09/08 10:41:21;;;;;;;10.30;4.97;;;;;;;25.47;85.24;101487.84;5016734;28;20040;-71
2023/09/08 10:43:56;;;;;;;8.90;4.67;;;;;;;25.62;91.87;101481.16;5032357;28;20025;-71
2023/09/08 10:46:23;;;;;;;10.60;4.95;;;;;;;25.69;90.36;101475.16;5032389;28;20292;-70
2023/09/08 10:48:48;;;;;;;6.93;4.50;;;;;;;25.59;83.09;101476.22;5032682;28;20025;-70
2023/09/08 10:51:15;;;;;;;6.82;4.78;;;;;;;25.65;81.20;101474.13;5031152;28;20014;-73
2023/09/08 10:53:41;;;;;;;10.73;4.90;;;;;;;25.75;84.96;101478.66;5032359;28;20056;-73
2023/09/08 10:56:06;;;;;;;7.20;4.55;;;;;;;25.81;82.60;101471.84;5029944;28;20021;-71
2023/09/08 10:58:35;;;;;;;7.15;4.75;;;;;;;26.01;85.85;101473.31;5039515;28;20352;-70
2023/09/08 11:01:03;;;;;;;10.57;4.88;;;;;;;26.11;81.82;101480.59;5029724;28;20052;-71
2023/09/08 11:03:38;;;;;;;12.88;5.50;;;;;;;26.06;77.68;101476.00;5030829;28;20075;-70
2023/09/08 11:06:04;;;;;;;7.55;4.40;;;;;;;26.06;79.04;101478.75;5031754;28;20108;-70
2023/09/08 11:08:30;;;;;;;9.15;4.80;;;;;;;26.17;79.23;101477.38;5030288;28;20511;-72
2023/09/08 11:10:56;;;;;;;9.70;4.63;;;;;;;26.33;80.66;101466.69;5031836;28;20033;-72
2023/09/08 11:13:22;;;;;;;9.00;4.68;;;;;;;26.43;81.36;101470.34;5031555;28;20110;-71
2023/09/08 11:15:47;;;;;;;10.75;4.30;;;;;;;26.52;74.32;101468.44;5032023;28;20028;-71
2023/09/08 11:18:13;;;;;;;15.10;4.70;;;;;;;26.67;77.90;101472.78;5031970;28;20030;-71
2023/09/08 11:20:38;;;;;;;6.93;4.60;;;;;;;26.70;75.24;101467.41;5032965;28;20021;-75
2023/09/08 11:23:05;;;;;;;7.93;4.72;;;;;;;26.78;71.07;101473.31;5039648;28;20025;-71
2023/09/08 11:25:32;;;;;;;10.18;4.07;;;;;;;26.94;77.65;101474.53;5031294;28;20033;-70
2023/09/08 11:27:58;;;;;;;8.35;4.25;;;;;;;27.01;69.83;101469.31;5026245;28;20039;-72
2023/09/08 11:30:25;;;;;;;8.02;4.15;;;;;;;27.11;68.55;101470.16;5031996;28;20021;-71
2023/09/08 11:32:50;;;;;;;8.45;4.75;;;;;;;27.16;67.46;101470.84;5031979;28;20449;-72
2023/09/08 11:35:20;;;;;;;7.78;4.20;;;;;;;27.26;67.95;101475.25;5030422;28;20033;-72
2023/09/08 11:37:46;;;;;;;5.22;3.83;;;;;;;27.37;74.50;101467.47;5015698;28;20092;-71
2023/09/08 11:40:13;;;;;;;11.20;4.35;;;;;;;27.44;71.21;101475.31;5012310;28;20453;-73
2023/09/08 11:42:43;;;;;;;7.20;4.32;;;;;;;27.45;65.27;101475.00;5015529;28;20377;-72
2023/09/08 11:45:14;;;;;;;10.48;3.90;;;;;;;27.66;68.28;101471.56;5016106;28;20037;-73
2023/09/08 11:47:41;;;;;;;6.03;3.40;;;;;;;27.82;66.94;101464.38;5017393;28;20025;-71
2023/09/08 11:50:08;;;;;;;7.25;3.83;;;;;;;27.92;65.12;101466.81;5017869;28;20018;-72
2023/09/08 11:52:33;;;;;;;9.70;4.03;;;;;;;28.02;64.02;101460.16;5040053;28;20040;-72
2023/09/08 11:54:58;;;;;;;5.20;3.83;;;;;;;28.13;66.66;101465.34;5017805;28;20046;-76
2023/09/08 11:57:24;;;;;;;7.70;4.10;;;;;;;28.12;62.46;101461.75;5015445;28;20045;-73
2023/09/08 11:59:50;;;;;;;6.35;3.85;;;;;;;28.15;60.25;101460.28;5015927;28;20056;-71
2023/09/08 12:02:15;;;;;;;25.85;4.70;;;;;;;28.15;59.88;101465.84;5011705;28;20084;-73
2023/09/08 12:04:42;;;;;;;7.07;3.75;;;;;;;28.16;58.86;101464.69;5015740;28;20022;-71
2023/09/08 12:07:12;;;;;;;8.75;3.88;;;;;;;28.28;61.39;101462.06;5045738;28;20029;-71
2023/09/08 12:09:38;;;;;;;;;;;;;;;28.24;63.63;101463.88;5053591;28;20445;-73
2023/09/08 12:12:10;;;;;;;7.20;3.47;;;;;;;28.43;59.70;101461.53;5038653;28;19916;-72
2023/09/08 12:14:41;;;;;;;4.18;3.50;;;;;;;28.57;58.65;101463.28;5032320;28;20021;-72
2023/09/08 12:17:09;;;;;;;8.10;3.38;;;;;;;28.61;56.03;101455.91;5034281;28;20045;-71
2023/09/08 12:19:38;;;;;;;7.70;3.78;;;;;;;28.64;58.12;101461.66;5032998;28;20017;-71
2023/09/08 12:22:05;;;;;;;6.43;3.50;;;;;;;28.70;57.71;101455.88;5033596;28;20044;-71
2023/09/08 12:24:56;;;;;;;15.85;4.60;;;;;;;28.79;59.72;101459.44;5034334;28;20058;-76
2023/09/08 12:27:23;;;;;;;6.50;3.50;;;;;;;28.89;57.87;101456.28;5041305;28;20030;-72
2023/09/08 12:29:54;;;;;;;8.50;3.60;;;;;;;28.94;54.92;101461.69;5045552;28;20048;-69
2023/09/08 12:32:20;;;;;;;11.85;3.55;;;;;;;29.10;55.12;101456.31;5034229;28;20033;-72
2023/09/08 12:34:46;;;;;;;4.53;3.13;;;;;;;29.15;54.31;101447.78;5030454;28;20048;-75
2023/09/08 12:37:12;;;;;;;5.57;3.40;;;;;;;29.22;55.91;101454.84;5015306;28;20374;-71
2023/09/08 12:39:38;;;;;;;5.57;3.38;;;;;;;29.23;53.43;101453.66;5025441;28;20721;-70
2023/09/08 12:42:04;;;;;;;4.32;3.42;;;;;;;29.28;55.25;101450.69;5030876;28;20411;-72
2023/09/08 12:44:29;;;;;;;5.20;3.35;;;;;;;29.32;57.46;101455.25;5034521;28;20104;-71
2023/09/08 12:46:55;;;;;;;5.55;3.60;;;;;;;29.40;56.16;101453.53;5033431;28;20029;-73
2023/09/08 12:49:20;;;;;;;7.28;3.78;;;;;;;29.41;56.20;101443.19;5029217;28;20025;-72
2023/09/08 12:51:45;;;;;;;5.30;3.63;;;;;;;29.47;55.81;101455.78;5036906;28;20372;-75
2023/09/08 12:54:11;;;;;;;11.88;3.80;;;;;;;29.43;53.54;101440.91;5044270;28;20045;-73
2023/09/08 12:56:36;;;;;;;16.90;4.73;;;;;;;29.45;54.19;101452.53;5034540;28;20025;-76
2023/09/08 12:59:01;;;;;;;23.45;5.38;;;;;;;29.49;53.51;101447.91;5034590;28;20264;-73
2023/09/08 13:01:28;;;;;;;27.33;4.43;;;;;;;29.40;53.67;101442.41;5030454;28;20075;-74
2023/09/08 13:03:53;;;;;;;14.00;4.15;;;;;;;29.43;53.29;101441.72;5034719;28;20076;-76
2023/09/08 13:06:19;;;;;;;28.65;5.45;;;;;;;29.41;53.16;101435.69;5041045;28;20407;-73
2023/09/08 13:08:44;;;;;;;10.32;3.63;;;;;;;29.46;53.64;101431.88;5054374;28;20371;-76
2023/09/08 13:11:09;;;;;;;7.45;3.88;;;;;;;29.51;53.39;101432.44;5054309;28;20033;-74
2023/09/08 13:13:35;;;;;;;12.70;4.35;;;;;;;29.66;55.94;101433.00;5054167;28;20448;-76
2023/09/08 13:16:00;;;;;;;7.10;4.00;;;;;;;29.70;57.51;101429.19;5054654;28;20056;-74
2023/09/08 13:18:25;;;;;;;7.68;4.03;;;;;;;29.78;57.64;101426.66;5046915;28;20460;-73
2023/09/08 13:20:51;;;;;;;5.50;4.10;;;;;;;29.80;54.81;101427.13;5032353;28;20025;-73
2023/09/08 13:23:16;;;;;;;9.40;3.67;;;;;;;29.75;54.65;101424.56;5032702;28;20361;-75
2023/09/08 13:25:41;;;;;;;6.10;4.18;;;;;;;29.79;54.45;101425.50;5042302;28;20119;-73
2023/09/08 13:28:07;;;;;;;8.15;4.10;;;;;;;29.71;53.56;101418.84;5033441;28;20022;-74
2023/09/08 13:30:32;;;;;;;8.18;4.00;;;;;;;29.62;54.14;101415.31;5052373;28;20380;-73
2023/09/08 13:32:57;;;;;;;4.35;3.95;;;;;;;29.66;54.96;101421.84;5036203;28;20461;-72
2023/09/08 13:35:23;;;;;;;7.40;4.07;;;;;;;29.74;55.61;101423.72;5041515;28;20032;-72
2023/09/08 13:37:48;;;;;;;11.85;4.00;;;;;;;29.88;55.94;101417.91;5036089;28;20042;-73
2023/09/08 13:40:14;;;;;;;5.80;4.05;;;;;;;29.76;58.22;101420.59;5038835;28;20033;-76
2023/09/08 13:42:39;;;;;;;7.18;4.47;;;;;;;29.80;53.79;101410.38;5052461;28;20017;-75
2023/09/08 13:45:05;;;;;;;6.97;4.05;;;;;;;29.83;58.19;101410.56;5053506;28;20017;-72
2023/09/08 13:47:30;;;;;;;8.80;4.60;;;;;;;29.75;53.72;101410.63;5053245;28;20025;-72
2023/09/08 13:49:56;;;;;;;7.60;4.18;;;;;;;29.92;60.29;101412.44;5051546;28;20032;-73
2023/09/08 13:52:21;;;;;;;8.55;4.57;;;;;;;29.83;54.41;101410.56;5062909;28;20044;-73
2023/09/08 13:54:46;;;;;;;7.80;4.28;;;;;;;29.72;53.38;101412.09;5020600;28;20088;-72
2023/09/08 13:57:11;;;;;;;11.10;4.10;;;;;;;29.67;53.47;101406.75;5013809;28;20113;-72
2023/09/08 13:59:37;;;;;;;10.68;4.20;;;;;;;29.74;53.51;101401.41;5012215;28;20327;-71
2023/09/08 14:02:03;;;;;;;5.43;4.13;;;;;;;29.78;53.72;101402.38;5011376;28;20432;-74
2023/09/08 14:04:29;;;;;;;8.57;4.32;;;;;;;29.89;54.80;101401.97;5041857;28;20033;-76
2023/09/08 14:06:54;;;;;;;8.55;4.00;;;;;;;29.91;54.73;101396.84;5020788;28;20121;-78
2023/09/08 14:09:19;;;;;;;7.57;4.00;;;;;;;29.99;54.07;101401.53;5032424;28;20025;-73
